createdAt,value
2018-11-03T00:01:53.256Z,101944.56
2018-11-03T00:04:27.345Z,101949.23
2018-11-03T00:07:01.375Z,101946.30
2018-11-03T00:09:35.475Z,101950.52
2018-11-03T00:12:09.613Z,101945.39
2018-11-03T00:14:43.782Z,101949.16
2018-11-03T00:17:17.891Z,101949.59
2018-11-03T00:19:51.969Z,101948.70
2018-11-03T00:22:26.014Z,101944.06
2018-11-03T00:25:00.159Z,101948.28
2018-11-03T00:27:34.212Z,101952.08
2018-11-03T00:30:10.790Z,101952.86
2018-11-03T00:32:44.836Z,101958.39
2018-11-03T00:35:18.863Z,101954.53
2018-11-03T00:37:52.998Z,101957.51
2018-11-03T00:40:27.103Z,101956.20
2018-11-03T00:43:01.138Z,101952.77
2018-11-03T00:45:35.263Z,101964.63
2018-11-03T00:48:09.267Z,101966.69
2018-11-03T00:50:43.340Z,101965.41
2018-11-03T00:53:17.393Z,101963.22
2018-11-03T00:55:51.502Z,101968.28
2018-11-03T00:58:25.629Z,101963.50
2018-11-03T01:00:59.750Z,101970.25
2018-11-03T01:03:33.803Z,101969.80
2018-11-03T01:06:07.884Z,101970.99
2018-11-03T01:08:41.930Z,101976.42
2018-11-03T01:11:15.997Z,101982.29
2018-11-03T01:13:49.994Z,101980.52
2018-11-03T01:16:24.081Z,101983.41
2018-11-03T01:18:58.105Z,101985.47
2018-11-03T01:21:32.172Z,101977.38
2018-11-03T01:24:06.826Z,101986.27
2018-11-03T01:26:40.894Z,101988.30
2018-11-03T01:29:15.167Z,101988.63
2018-11-03T01:31:49.232Z,101985.62
2018-11-03T01:34:23.255Z,101990.19
2018-11-03T01:36:57.292Z,101989.68
2018-11-03T01:39:31.303Z,101989.20
2018-11-03T01:42:05.519Z,101983.13
2018-11-03T01:44:39.588Z,101983.91
2018-11-03T01:47:13.626Z,101988.47
2018-11-03T01:49:47.659Z,101986.25
2018-11-03T01:52:21.705Z,101974.75
2018-11-03T01:54:55.698Z,101979.83
2018-11-03T01:57:29.891Z,101986.56
2018-11-03T02:00:04.365Z,101988.61
2018-11-03T02:02:38.486Z,101987.67
2018-11-03T02:05:12.611Z,101988.02
2018-11-03T02:07:46.742Z,101978.17
2018-11-03T02:10:20.769Z,101989.50
2018-11-03T02:12:54.888Z,101997.04
2018-11-03T02:15:28.897Z,102000.33
2018-11-03T02:18:02.970Z,101997.77
2018-11-03T02:20:36.979Z,101992.52
2018-11-03T02:23:11.069Z,101999.71
2018-11-03T02:25:45.117Z,102000.50
2018-11-03T02:28:19.257Z,101996.20
2018-11-03T02:30:53.259Z,101994.78
2018-11-03T02:33:27.325Z,102003.20
2018-11-03T02:36:01.485Z,102009.13
2018-11-03T02:38:35.555Z,102012.44
2018-11-03T02:41:09.601Z,102010.69
2018-11-03T02:43:43.662Z,102009.77
2018-11-03T02:46:17.730Z,102012.65
2018-11-03T02:48:51.799Z,102012.95
2018-11-03T02:51:25.643Z,102011.19
2018-11-03T02:53:59.528Z,102008.57
2018-11-03T02:56:33.357Z,102005.47
2018-11-03T02:59:07.296Z,102006.63
2018-11-03T03:01:41.185Z,102006.97
2018-11-03T03:04:15.217Z,102003.98
2018-11-03T03:06:49.045Z,101998.84
2018-11-03T03:09:22.919Z,102008.52
2018-11-03T03:11:56.825Z,102009.34
2018-11-03T03:14:30.713Z,102004.69
2018-11-03T03:17:04.635Z,102008.85
2018-11-03T03:19:38.534Z,102020.59
2018-11-03T03:22:12.403Z,102025.95
2018-11-03T03:24:46.247Z,102024.95
2018-11-03T03:27:20.095Z,102023.63
2018-11-03T03:29:54.051Z,102026.22
2018-11-03T03:32:27.908Z,102020.34
2018-11-03T03:35:01.885Z,102019.13
2018-11-03T03:37:35.782Z,102024.62
2018-11-03T03:40:10.134Z,102028.02
2018-11-03T03:42:44.021Z,102030.55
2018-11-03T03:45:17.884Z,102029.68
2018-11-03T03:47:51.731Z,102034.27
2018-11-03T03:50:25.604Z,102038.48
2018-11-03T03:52:59.473Z,102045.68
2018-11-03T03:55:33.360Z,102046.04
2018-11-03T03:58:07.595Z,102047.70
2018-11-03T04:00:41.495Z,102050.14
2018-11-03T04:03:15.318Z,102049.98
2018-11-03T04:05:49.254Z,102052.35
2018-11-03T04:08:23.111Z,102059.78
2018-11-03T04:10:57.010Z,102062.23
2018-11-03T04:13:30.844Z,102059.27
2018-11-03T04:16:04.933Z,102066.04
2018-11-03T04:18:38.835Z,102060.02
2018-11-03T04:21:17.050Z,102070.08
2018-11-03T04:23:50.908Z,102065.81
2018-11-03T04:26:25.104Z,102074.32
2018-11-03T04:28:59.507Z,102063.83
2018-11-03T04:31:33.399Z,102061.13
2018-11-03T04:34:07.255Z,102064.52
2018-11-03T04:36:41.112Z,102059.42
2018-11-03T04:39:14.956Z,102059.45
2018-11-03T04:41:48.977Z,102065.38
2018-11-03T04:44:22.899Z,102062.42
2018-11-03T04:46:56.874Z,102056.89
2018-11-03T04:49:30.726Z,102059.42
2018-11-03T04:52:04.793Z,102049.23
2018-11-03T04:54:38.613Z,102052.52
2018-11-03T04:57:12.529Z,102049.05
2018-11-03T04:59:46.405Z,102049.49
2018-11-03T05:02:20.306Z,102049.97
2018-11-03T05:04:54.176Z,102052.86
2018-11-03T05:07:28.208Z,102058.83
2018-11-03T05:10:02.144Z,102055.88
2018-11-03T05:12:36.319Z,102061.28
2018-11-03T05:15:10.215Z,102051.09
2018-11-03T05:17:44.089Z,102059.52
2018-11-03T05:20:17.963Z,102065.88
2018-11-03T05:22:51.872Z,102062.47
2018-11-03T05:25:25.679Z,102060.22
2018-11-03T05:27:59.640Z,102065.75
2018-11-03T05:30:33.559Z,102062.34
2018-11-03T05:33:07.504Z,102066.11
2018-11-03T05:35:41.355Z,102067.13
2018-11-03T05:38:15.230Z,102067.96
2018-11-03T05:40:49.093Z,102073.94
2018-11-03T05:43:22.997Z,102069.23
2018-11-03T05:45:56.852Z,102074.27
2018-11-03T05:48:30.709Z,102078.86
2018-11-03T05:51:04.553Z,102079.28
2018-11-03T05:53:38.481Z,102087.28
2018-11-03T05:56:12.338Z,102091.83
2018-11-03T05:58:46.243Z,102089.23
2018-11-03T06:01:20.083Z,102084.13
2018-11-03T06:03:54.028Z,102085.83
2018-11-03T06:06:27.867Z,102088.72
2018-11-03T06:09:01.838Z,102091.16
2018-11-03T06:11:35.596Z,102085.72
2018-11-03T06:14:09.491Z,102089.04
2018-11-03T06:16:43.354Z,102090.19
2018-11-03T06:19:17.278Z,102090.52
2018-11-03T06:21:51.107Z,102096.32
2018-11-03T06:24:25.097Z,102099.18
2018-11-03T06:26:58.951Z,102107.03
2018-11-03T06:29:32.897Z,102101.45
2018-11-03T06:32:07.137Z,102105.56
2018-11-03T06:34:41.104Z,102107.22
2018-11-03T06:37:14.866Z,102107.06
2018-11-03T06:39:48.807Z,102113.54
2018-11-03T06:42:22.715Z,102115.19
2018-11-03T06:44:56.557Z,102128.66
2018-11-03T06:47:30.501Z,102129.91
2018-11-03T06:50:05.382Z,102129.37
2018-11-03T06:52:39.216Z,102131.80
2018-11-03T06:55:13.114Z,102133.39
2018-11-03T06:57:47.044Z,102134.56
2018-11-03T07:00:20.991Z,102138.77
2018-11-03T07:02:55.017Z,102141.67
2018-11-03T07:05:29.063Z,102140.09
2018-11-03T07:08:02.980Z,102141.42
2018-11-03T07:10:36.893Z,102144.49
2018-11-03T07:13:10.734Z,102142.17
2018-11-03T07:15:44.694Z,102144.36
2018-11-03T07:18:18.465Z,102147.39
2018-11-03T07:20:52.438Z,102148.69
2018-11-03T07:23:26.303Z,102154.50
2018-11-03T07:26:00.161Z,102154.17
2018-11-03T07:28:34.208Z,102158.59
2018-11-03T07:31:08.141Z,102157.06
2018-11-03T07:33:42.032Z,102157.62
2018-11-03T07:36:16.264Z,102153.47
2018-11-03T07:38:50.155Z,102152.37
2018-11-03T07:41:24.141Z,102160.59
2018-11-03T07:43:57.996Z,102167.86
2018-11-03T07:46:31.936Z,102165.01
2018-11-03T07:49:06.415Z,102168.06
2018-11-03T07:51:40.190Z,102174.92
2018-11-03T07:54:14.019Z,102175.51
2018-11-03T07:56:47.903Z,102173.91
2018-11-03T07:59:22.872Z,102177.76
2018-11-03T08:01:56.823Z,102172.30
2018-11-03T08:04:30.695Z,102180.61
2018-11-03T08:07:04.561Z,102176.61
2018-11-03T08:09:38.485Z,102174.30
2018-11-03T08:12:12.432Z,102178.01
2018-11-03T08:14:46.290Z,102184.20
2018-11-03T08:17:20.235Z,102186.16
2018-11-03T08:19:54.286Z,102179.06
2018-11-03T08:22:29.069Z,102179.08
2018-11-03T08:25:03.022Z,102179.85
2018-11-03T08:27:36.938Z,102175.91
2018-11-03T08:30:13.125Z,102181.61
2018-11-03T08:32:46.974Z,102183.02
2018-11-03T08:35:20.931Z,102176.47
2018-11-03T08:37:54.955Z,102181.42
2018-11-03T08:40:28.902Z,102172.35
2018-11-03T08:43:02.791Z,102175.24
2018-11-03T08:45:36.859Z,102173.83
2018-11-03T08:48:10.802Z,102170.89
2018-11-03T08:50:44.625Z,102173.01
2018-11-03T08:53:18.576Z,102170.97
2018-11-03T08:55:52.736Z,102182.66
2018-11-03T08:58:26.700Z,102173.10
2018-11-03T09:01:00.836Z,102185.86
2018-11-03T09:03:34.853Z,102177.09
2018-11-03T09:06:08.680Z,102177.69
2018-11-03T09:08:42.584Z,102176.05
2018-11-03T09:11:16.494Z,102186.70
2018-11-03T09:13:50.376Z,102174.11
2018-11-03T09:16:24.311Z,102169.61
2018-11-03T09:18:58.896Z,102173.58
2018-11-03T09:21:33.513Z,102164.77
2018-11-03T09:24:07.730Z,102172.84
2018-11-03T09:26:41.561Z,102165.28
2018-11-03T09:29:15.540Z,102157.32
2018-11-03T09:31:49.473Z,102160.39
2018-11-03T09:34:23.297Z,102165.05
2018-11-03T09:36:57.191Z,102166.05
2018-11-03T09:39:31.152Z,102163.51
2018-11-03T09:42:05.598Z,102161.94
2018-11-03T09:44:39.661Z,102167.17
2018-11-03T09:47:13.515Z,102166.03
2018-11-03T09:49:50.437Z,102172.06
2018-11-03T09:52:24.501Z,102165.77
2018-11-03T09:54:58.463Z,102167.08
2018-11-03T09:57:32.393Z,102159.13
2018-11-03T10:00:09.115Z,102161.44
2018-11-03T10:02:43.083Z,102162.82
2018-11-03T10:05:17.508Z,102166.29
2018-11-03T10:07:51.371Z,102170.28
2018-11-03T10:10:25.355Z,102164.33
2018-11-03T10:12:59.205Z,102158.86
2018-11-03T10:15:33.042Z,102157.16
2018-11-03T10:18:08.112Z,102148.70
2018-11-03T10:20:42.003Z,102144.48
2018-11-03T10:23:15.840Z,102152.91
2018-11-03T10:25:49.891Z,102149.55
2018-11-03T10:28:23.737Z,102145.36
2018-11-03T10:30:57.626Z,102138.63
2018-11-03T10:33:31.552Z,102142.08
2018-11-03T10:36:05.620Z,102133.97
2018-11-03T10:38:39.502Z,102136.17
2018-11-03T10:41:13.420Z,102125.55
2018-11-03T10:43:47.260Z,102122.22
2018-11-03T10:46:21.470Z,102125.25
2018-11-03T10:48:55.435Z,102118.47
2018-11-03T10:51:29.385Z,102113.73
2018-11-03T10:54:03.930Z,102116.31
2018-11-03T10:56:37.825Z,102112.92
2018-11-03T10:59:11.761Z,102113.41
2018-11-03T11:02:53.430Z,102117.24
2018-11-03T11:05:32.580Z,102114.70
2018-11-03T11:08:11.764Z,102109.20
2018-11-03T11:10:50.806Z,102110.45
2018-11-03T11:13:26.206Z,102113.06
2018-11-03T11:16:00.397Z,102111.00
2018-11-03T11:18:34.263Z,102107.19
2018-11-03T11:21:08.095Z,102097.87
2018-11-03T11:23:42.002Z,102109.38
2018-11-03T11:26:15.849Z,102105.55
2018-11-03T11:28:49.732Z,102100.00
2018-11-03T11:31:23.587Z,102092.77
2018-11-03T11:33:57.451Z,102095.73
2018-11-03T11:36:31.220Z,102092.33
2018-11-03T11:39:06.465Z,102094.89
2018-11-03T11:41:40.380Z,102091.04
2018-11-03T11:44:14.227Z,102089.34
2018-11-03T11:46:48.086Z,102082.95
2018-11-03T11:49:21.989Z,102076.98
2018-11-03T11:51:55.850Z,102081.68
2018-11-03T11:54:29.817Z,102074.85
2018-11-03T11:57:03.670Z,102073.55
2018-11-03T11:59:37.737Z,102063.77
2018-11-03T12:02:11.822Z,102070.17
2018-11-03T12:04:45.689Z,102069.73
2018-11-03T12:07:19.573Z,102065.03
2018-11-03T12:09:53.498Z,102068.02
2018-11-03T12:12:27.322Z,102065.05
2018-11-03T12:15:01.283Z,102062.92
2018-11-03T12:17:35.142Z,102058.66
2018-11-03T12:20:09.398Z,102062.08
2018-11-03T12:22:43.194Z,102062.05
2018-11-03T12:25:17.102Z,102062.49
2018-11-03T12:27:50.931Z,102054.40
2018-11-03T12:30:24.805Z,102057.37
2018-11-03T12:32:58.666Z,102057.36
2018-11-03T12:35:32.531Z,102060.78
2018-11-03T12:38:06.483Z,102052.69
2018-11-03T12:40:40.513Z,102048.00
2018-11-03T12:43:14.333Z,102048.85
2018-11-03T12:45:48.191Z,102058.64
2018-11-03T12:48:22.197Z,102057.37
2018-11-03T12:50:56.036Z,102048.42
2018-11-03T12:53:29.873Z,102045.86
2018-11-03T12:56:03.755Z,102045.85
2018-11-03T12:58:37.594Z,102045.00
2018-11-03T13:01:11.455Z,102035.62
2018-11-03T13:03:45.327Z,102039.03
2018-11-03T13:06:19.194Z,102036.89
2018-11-03T13:08:53.010Z,102039.05
2018-11-03T13:11:27.147Z,102033.06
2018-11-03T13:14:01.000Z,102043.70
2018-11-03T13:16:35.837Z,102032.22
2018-11-03T13:19:09.743Z,102032.20
2018-11-03T13:21:43.651Z,102028.80
2018-11-03T13:24:17.507Z,102028.78
2018-11-03T13:26:51.391Z,102033.92
2018-11-03T13:29:25.307Z,102030.94
2018-11-03T13:31:59.181Z,102030.52
2018-11-03T13:34:33.012Z,102028.81
2018-11-03T13:37:08.037Z,102019.84
2018-11-03T13:39:42.037Z,102015.59
2018-11-03T13:42:17.098Z,102011.77
2018-11-03T13:44:50.900Z,102014.73
2018-11-03T13:47:25.223Z,102016.00
2018-11-03T13:49:59.211Z,102020.28
2018-11-03T13:52:33.955Z,102018.56
2018-11-03T13:55:08.403Z,102016.86
2018-11-03T13:57:43.419Z,102015.17
2018-11-03T14:00:18.794Z,102008.78
2018-11-03T14:02:52.645Z,102010.03
2018-11-03T14:05:27.079Z,102008.36
2018-11-03T14:08:00.981Z,102008.33
2018-11-03T14:10:34.810Z,102015.17
2018-11-03T14:13:08.811Z,102006.20
2018-11-03T14:15:42.660Z,102014.30
2018-11-03T14:18:16.594Z,102011.31
2018-11-03T14:20:50.667Z,102015.16
2018-11-03T14:23:24.586Z,102015.16
2018-11-03T14:25:58.424Z,102011.30
2018-11-03T14:28:32.557Z,102007.04
2018-11-03T14:31:06.401Z,102007.05
2018-11-03T14:33:40.536Z,101999.80
2018-11-03T14:36:14.433Z,102010.89
2018-11-03T14:38:48.333Z,102007.48
2018-11-03T14:41:22.185Z,102007.91
2018-11-03T14:43:56.282Z,102010.47
2018-11-03T14:46:30.488Z,102003.64
2018-11-03T14:49:04.548Z,102001.94
2018-11-03T14:51:38.585Z,102010.88
2018-11-03T14:54:12.741Z,102006.58
2018-11-03T14:56:46.743Z,102001.03
2018-11-03T14:59:20.868Z,102004.02
2018-11-03T15:01:54.941Z,102005.73
2018-11-03T15:04:28.983Z,102002.30
2018-11-03T15:07:02.843Z,102001.45
2018-11-03T15:09:36.728Z,102004.00
2018-11-03T15:12:10.657Z,101997.18
2018-11-03T15:14:44.669Z,101986.04
2018-11-03T15:17:18.509Z,101989.86
2018-11-03T15:19:52.361Z,101987.29
2018-11-03T15:22:26.556Z,101988.07
2018-11-03T15:25:00.893Z,101988.06
2018-11-03T15:27:34.968Z,101983.36
2018-11-03T15:30:10.383Z,101982.49
2018-11-03T15:32:44.350Z,101981.58
2018-11-03T15:35:18.219Z,101984.09
2018-11-03T15:37:52.004Z,101980.23
2018-11-03T15:40:25.965Z,101975.95
2018-11-03T15:42:59.783Z,101976.73
2018-11-03T15:45:33.738Z,101980.09
2018-11-03T15:48:07.629Z,101973.22
2018-11-03T15:50:46.482Z,101966.77
2018-11-03T15:53:20.594Z,101971.76
2018-11-03T15:55:54.493Z,101968.30
2018-11-03T15:58:28.310Z,101964.42
2018-11-03T16:01:02.208Z,101966.48
2018-11-03T16:03:36.076Z,101968.06
2018-11-03T16:06:09.900Z,101967.08
2018-11-03T16:08:43.851Z,101961.06
2018-11-03T16:11:17.765Z,101959.23
2018-11-03T16:13:51.620Z,101959.16
2018-11-03T16:16:25.495Z,101957.30
2018-11-03T16:18:59.517Z,101964.39
2018-11-03T16:21:33.555Z,101960.02
2018-11-03T16:24:07.416Z,101959.86
2018-11-03T16:26:41.321Z,101958.53
2018-11-03T16:29:15.098Z,101956.36
2018-11-03T16:31:49.017Z,101956.23
2018-11-03T16:34:23.029Z,101958.67
2018-11-03T16:36:56.882Z,101958.20
2018-11-03T16:39:30.717Z,101958.11
2018-11-03T16:42:04.896Z,101960.08
2018-11-03T16:44:38.737Z,101956.05
2018-11-03T16:47:12.607Z,101953.35
2018-11-03T16:49:46.508Z,101951.98
2018-11-03T16:52:20.404Z,101943.40
2018-11-03T16:54:54.248Z,101953.08
2018-11-03T16:57:28.109Z,101950.42
2018-11-03T17:00:02.023Z,101953.09
2018-11-03T17:02:36.259Z,101954.28
2018-11-03T17:05:11.334Z,101932.52
2018-11-03T17:07:45.196Z,101951.99
2018-11-03T17:10:19.119Z,101947.27
2018-11-03T17:12:53.104Z,101954.82
2018-11-03T17:15:26.915Z,101945.73
2018-11-03T17:18:00.876Z,101944.36
2018-11-03T17:20:34.819Z,101951.92
2018-11-03T17:23:08.808Z,101950.98
2018-11-03T17:25:42.602Z,101950.00
2018-11-03T17:28:16.460Z,101948.52
2018-11-03T17:30:50.369Z,101952.98
2018-11-03T17:33:24.281Z,101948.95
2018-11-03T17:35:58.131Z,101949.39
2018-11-03T17:38:31.974Z,101943.38
2018-11-03T17:41:05.959Z,101939.53
2018-11-03T17:43:39.959Z,101938.91
2018-11-03T17:46:13.867Z,101942.13
2018-11-03T17:48:47.730Z,101932.71
2018-11-03T17:51:22.028Z,101936.45
2018-11-03T17:53:56.361Z,101935.94
2018-11-03T17:56:30.720Z,101934.92
2018-11-03T17:59:05.068Z,101941.24
2018-11-03T18:01:39.210Z,101932.64
2018-11-03T18:04:13.591Z,101930.88
2018-11-03T18:06:47.916Z,101923.12
2018-11-03T18:09:22.389Z,101923.53
2018-11-03T18:11:56.511Z,101922.14
2018-11-03T18:14:31.150Z,101919.02
2018-11-03T18:17:05.393Z,101914.63
2018-11-03T18:19:39.897Z,101916.16
2018-11-03T18:22:14.248Z,101910.59
2018-11-03T18:24:49.050Z,101910.05
2018-11-03T18:27:23.236Z,101920.46
2018-11-03T18:29:57.444Z,101919.92
2018-11-03T18:32:31.829Z,101922.45
2018-11-03T18:35:06.709Z,101926.94
2018-11-03T18:37:41.037Z,101921.82
2018-11-03T18:40:15.239Z,101927.77
2018-11-03T18:42:49.682Z,101926.94
2018-11-03T18:45:23.928Z,101925.63
2018-11-03T18:47:58.081Z,101928.90
2018-11-03T18:50:32.323Z,101928.80
2018-11-03T18:53:06.904Z,101920.16
2018-11-03T18:55:41.294Z,101915.51
2018-11-03T18:58:15.375Z,101921.61
2018-11-03T19:00:49.678Z,101924.13
2018-11-03T19:03:24.054Z,101914.24
2018-11-03T19:05:58.350Z,101910.42
2018-11-03T19:08:32.644Z,101908.75
2018-11-03T19:11:07.841Z,101907.34
2018-11-03T19:13:42.159Z,101908.88
2018-11-03T19:16:16.708Z,101909.91
2018-11-03T19:18:50.862Z,101914.03
2018-11-03T19:21:25.014Z,101910.63
2018-11-03T19:23:59.432Z,101907.09
2018-11-03T19:26:33.753Z,101903.80
2018-11-03T19:29:07.978Z,101901.63
2018-11-03T19:31:42.201Z,101905.39
2018-11-03T19:34:16.417Z,101909.54
2018-11-03T19:36:50.392Z,101906.72
2018-11-03T19:39:24.192Z,101907.95
2018-11-03T19:41:58.105Z,101907.95
2018-11-03T19:44:31.903Z,101907.45
2018-11-03T19:47:05.853Z,101905.22
2018-11-03T19:49:39.658Z,101899.66
2018-11-03T19:52:13.532Z,101895.87
2018-11-03T19:54:47.383Z,101901.24
2018-11-03T19:57:21.264Z,101901.59
2018-11-03T19:59:55.070Z,101899.13
2018-11-03T20:02:28.935Z,101897.55
2018-11-03T20:05:02.769Z,101906.42
2018-11-03T20:07:36.624Z,101901.69
2018-11-03T20:10:10.598Z,101902.83
2018-11-03T20:12:44.425Z,101905.27
2018-11-03T20:15:18.282Z,101901.47
2018-11-03T20:17:52.269Z,101893.89
2018-11-03T20:20:26.089Z,101894.66
2018-11-03T20:22:59.933Z,101891.24
2018-11-03T20:25:33.739Z,101893.33
2018-11-03T20:28:07.601Z,101887.30
2018-11-03T20:30:41.426Z,101885.56
2018-11-03T20:33:15.296Z,101890.97
2018-11-03T20:35:49.114Z,101886.77
2018-11-03T20:38:22.957Z,101885.09
2018-11-03T20:40:56.858Z,101878.63
2018-11-03T20:43:30.809Z,101877.80
2018-11-03T20:46:04.678Z,101878.21
2018-11-03T20:48:38.585Z,101866.02
2018-11-03T20:51:13.097Z,101871.45
2018-11-03T20:53:47.059Z,101868.74
2018-11-03T20:56:20.857Z,101862.36
2018-11-03T20:58:54.716Z,101870.83
2018-11-03T21:01:28.571Z,101855.89
2018-11-03T21:04:02.486Z,101853.81
2018-11-03T21:06:36.316Z,101860.95
2018-11-03T21:09:11.045Z,101857.16
2018-11-03T21:11:44.880Z,101851.16
2018-11-03T21:14:18.747Z,101845.22
2018-11-03T21:16:52.562Z,101842.06
2018-11-03T21:19:26.418Z,101834.27
2018-11-03T21:22:00.371Z,101828.05
2018-11-03T21:24:34.214Z,101827.55
2018-11-03T21:27:09.682Z,101829.31
2018-11-03T21:29:43.527Z,101829.38
2018-11-03T21:32:17.405Z,101824.14
2018-11-03T21:34:51.238Z,101821.48
2018-11-03T21:37:25.052Z,101815.23
2018-11-03T21:39:58.948Z,101814.86
2018-11-03T21:42:32.797Z,101810.25
2018-11-03T21:45:07.494Z,101806.49
2018-11-03T21:47:41.288Z,101804.88
2018-11-03T21:50:15.198Z,101804.91
2018-11-03T21:52:49.019Z,101799.33
2018-11-03T21:55:22.839Z,101798.83
2018-11-03T21:57:56.662Z,101791.12
2018-11-03T22:00:30.496Z,101784.05
2018-11-03T22:03:04.348Z,101784.94
2018-11-03T22:05:38.221Z,101784.18
2018-11-03T22:08:12.056Z,101785.03
2018-11-03T22:10:46.003Z,101777.52
2018-11-03T22:13:19.827Z,101785.03
2018-11-03T22:15:53.831Z,101777.45
2018-11-03T22:18:27.628Z,101773.52
2018-11-03T22:21:01.538Z,101771.52
2018-11-03T22:23:35.361Z,101765.74
2018-11-03T22:26:09.299Z,101766.41
2018-11-03T22:28:43.096Z,101764.70
2018-11-03T22:31:16.982Z,101756.63
2018-11-03T22:33:50.788Z,101755.45
2018-11-03T22:36:24.657Z,101756.78
2018-11-03T22:38:59.165Z,101750.70
2018-11-03T22:41:33.367Z,101739.88
2018-11-03T22:44:07.216Z,101748.48
2018-11-03T22:46:41.117Z,101741.55
2018-11-03T22:49:14.996Z,101741.66
2018-11-03T22:51:49.477Z,101738.46
2018-11-03T22:54:23.235Z,101745.22
2018-11-03T22:56:57.100Z,101746.89
2018-11-03T22:59:30.928Z,101734.00
2018-11-03T23:02:04.963Z,101726.00
2018-11-03T23:04:38.914Z,101719.95
2018-11-03T23:07:12.860Z,101715.92
2018-11-03T23:09:46.668Z,101715.90
2018-11-03T23:12:20.533Z,101708.82
2018-11-03T23:14:54.387Z,101707.58
2018-11-03T23:17:28.236Z,101704.14
2018-11-03T23:20:02.050Z,101698.24
2018-11-03T23:22:35.919Z,101697.91
2018-11-03T23:25:10.456Z,101696.87
2018-11-03T23:27:44.310Z,101696.12
2018-11-03T23:30:18.204Z,101695.77
2018-11-03T23:32:52.048Z,101698.13
2018-11-03T23:35:25.914Z,101676.33
2018-11-03T23:37:59.879Z,101682.04
2018-11-03T23:40:33.736Z,101678.34
2018-11-03T23:43:07.661Z,101670.51
2018-11-03T23:45:41.468Z,101673.13
2018-11-03T23:48:15.365Z,101666.25
2018-11-03T23:50:49.194Z,101660.90
2018-11-03T23:53:23.178Z,101655.54
2018-11-03T23:55:57.082Z,101654.45
2018-11-03T23:58:30.978Z,101651.50
